Time,TemperatureF,DewpointF,PressureIn,WindDirection,WindDirectionDegrees,WindSpeedMPH,WindSpeedGustMPH,Humidity,HourlyPrecipIn,Conditions,Clouds,dailyrainin,SoftwareType,DateUTC
2013-07-08 00:01:00,67.6,66.1,29.98,WSW,245,0.0,1.0,95,0.00,,,0.00,LWC V1.12 B30,2013-07-08 04:01:00,
2013-07-08 00:05:00,67.6,66.1,29.98,WSW,245,0.0,1.0,95,0.00,,,0.00,LWC V1.12 B30,2013-07-08 04:05:00,
2013-07-08 00:09:00,67.6,66.1,29.98,WSW,245,0.0,1.0,95,0.00,,,0.00,LWC V1.12 B30,2013-07-08 04:09:00,
2013-07-08 00:15:00,67.8,66.3,29.98,WSW,245,0.0,1.0,95,0.00,,,0.00,LWC V1.12 B30,2013-07-08 04:15:00,
2013-07-08 00:19:00,67.8,66.3,29.98,WSW,245,0.0,1.0,95,0.00,,,0.00,LWC V1.12 B30,2013-07-08 04:19:00,
2013-07-08 00:25:00,67.8,66.0,29.98,WSW,245,0.0,0.0,94,0.00,,,0.00,LWC V1.12 B30,2013-07-08 04:25:00,
2013-07-08 00:31:00,67.6,65.8,29.98,WSW,245,0.0,1.0,94,0.00,,,0.00,LWC V1.12 B30,2013-07-08 04:31:00,
2013-07-08 00:37:00,67.6,65.8,29.98,SW,228,1.0,1.0,94,0.00,,,0.00,LWC V1.12 B30,2013-07-08 04:37:00,
2013-07-08 00:43:00,67.6,65.8,29.99,SW,228,1.0,1.0,94,0.00,,,0.00,LWC V1.12 B30,2013-07-08 04:43:00,
2013-07-08 00:49:00,67.6,65.8,29.99,SW,228,0.0,1.0,94,0.00,,,0.00,LWC V1.12 B30,2013-07-08 04:49:00,
2013-07-08 00:55:00,67.6,65.8,29.99,SW,228,0.0,1.0,94,0.00,,,0.00,LWC V1.12 B30,2013-07-08 04:55:00,
2013-07-08 01:01:00,67.4,65.6,29.99,SW,228,0.0,1.0,94,0.00,,,0.00,LWC V1.12 B30,2013-07-08 05:01:00,
2013-07-08 01:07:00,67.4,65.6,29.99,SW,228,0.0,1.0,94,0.00,,,0.00,LWC V1.12 B30,2013-07-08 05:07:00,
2013-07-08 01:13:00,67.4,65.6,29.99,SW,228,0.0,1.0,94,0.00,,,0.00,LWC V1.12 B30,2013-07-08 05:13:00,
2013-07-08 01:19:00,67.3,65.5,29.99,SW,228,1.0,2.0,94,0.00,,,0.00,LWC V1.12 B30,2013-07-08 05:19:00,
2013-07-08 01:25:00,67.3,65.5,29.98,SW,228,0.0,0.0,94,0.00,,,0.00,LWC V1.12 B30,2013-07-08 05:25:00,
2013-07-08 01:31:00,67.3,65.5,29.98,SW,228,0.0,0.0,94,0.00,,,0.00,LWC V1.12 B30,2013-07-08 05:31:00,
2013-07-08 01:37:00,67.4,65.6,29.98,SW,228,0.0,0.0,94,0.00,,,0.00,LWC V1.12 B30,2013-07-08 05:37:00,
2013-07-08 01:43:00,67.4,65.6,29.98,SW,228,0.0,0.0,94,0.00,,,0.00,LWC V1.12 B30,2013-07-08 05:43:00,
2013-07-08 01:49:00,67.3,65.5,29.98,SW,228,0.0,0.0,94,0.00,,,0.00,LWC V1.12 B30,2013-07-08 05:49:00,
2013-07-08 01:55:00,67.3,65.5,29.98,SW,228,0.0,0.0,94,0.00,,,0.00,LWC V1.12 B30,2013-07-08 05:55:00,
2013-07-08 02:01:00,67.3,65.5,29.98,SW,228,0.0,0.0,94,0.00,,,0.00,LWC V1.12 B30,2013-07-08 06:01:00,
2013-07-08 02:07:00,67.3,65.5,29.97,SW,228,0.0,1.0,94,0.00,,,0.00,LWC V1.12 B30,2013-07-08 06:07:00,
2013-07-08 02:13:00,67.1,65.3,29.97,SW,228,0.0,0.0,94,0.00,,,0.00,LWC V1.12 B30,2013-07-08 06:13:00,
2013-07-08 02:19:00,67.1,65.0,29.97,SW,228,0.0,1.0,93,0.00,,,0.00,LWC V1.12 B30,2013-07-08 06:19:00,
2013-07-08 02:25:00,67.1,65.0,29.97,SW,228,0.0,1.0,93,0.00,,,0.00,LWC V1.12 B30,2013-07-08 06:25:00,
2013-07-08 02:31:00,67.1,65.0,29.97,SSW,213,0.0,0.0,93,0.00,,,0.00,LWC V1.12 B30,2013-07-08 06:31:00,
2013-07-08 02:37:00,67.1,65.0,29.97,SSW,213,0.0,0.0,93,0.00,,,0.00,LWC V1.12 B30,2013-07-08 06:37:00,
2013-07-08 02:43:00,67.1,65.0,29.97,SSW,213,0.0,1.0,93,0.00,,,0.00,LWC V1.12 B30,2013-07-08 06:43:00,
2013-07-08 02:49:00,67.3,65.2,29.97,SSW,213,0.0,1.0,93,0.00,,,0.00,LWC V1.12 B30,2013-07-08 06:49:00,
2013-07-08 02:55:00,67.3,65.2,29.97,SSW,213,1.0,1.0,93,0.00,,,0.00,LWC V1.12 B30,2013-07-08 06:55:00,
2013-07-08 03:01:00,67.3,65.2,29.97,SSW,213,0.0,0.0,93,0.00,,,0.00,LWC V1.12 B30,2013-07-08 07:01:00,
2013-07-08 03:07:00,67.3,65.2,29.97,SSW,213,0.0,0.0,93,0.00,,,0.00,LWC V1.12 B30,2013-07-08 07:07:00,
2013-07-08 03:13:00,67.3,65.2,29.97,SSW,213,0.0,0.0,93,0.00,,,0.00,LWC V1.12 B30,2013-07-08 07:13:00,
2013-07-08 03:19:00,67.3,65.2,29.98,SSW,213,0.0,0.0,93,0.00,,,0.00,LWC V1.12 B30,2013-07-08 07:19:00,
2013-07-08 03:25:00,67.3,65.2,29.98,SSW,213,0.0,0.0,93,0.00,,,0.00,LWC V1.12 B30,2013-07-08 07:25:00,
2013-07-08 03:31:00,67.3,65.2,29.98,SSW,213,0.0,0.0,93,0.00,,,0.00,LWC V1.12 B30,2013-07-08 07:31:00,
2013-07-08 03:37:00,67.4,65.3,29.98,SSW,213,0.0,0.0,93,0.00,,,0.00,LWC V1.12 B30,2013-07-08 07:37:00,
2013-07-08 03:43:00,67.4,65.6,29.98,SSW,213,0.0,0.0,94,0.00,,,0.00,LWC V1.12 B30,2013-07-08 07:43:00,
2013-07-08 03:49:00,67.4,65.6,29.98,SSW,213,0.0,0.0,94,0.00,,,0.00,LWC V1.12 B30,2013-07-08 07:49:00,
2013-07-08 03:55:00,67.4,65.6,29.98,SSW,213,0.0,0.0,94,0.00,,,0.00,LWC V1.12 B30,2013-07-08 07:55:00,
2013-07-08 04:01:00,67.4,65.6,29.97,SSW,213,0.0,0.0,94,0.00,,,0.00,LWC V1.12 B30,2013-07-08 08:01:00,
2013-07-08 04:07:00,67.4,65.6,29.97,SSW,213,0.0,0.0,94,0.00,,,0.00,LWC V1.12 B30,2013-07-08 08:07:00,
2013-07-08 04:13:00,67.4,65.6,29.97,SSW,213,0.0,0.0,94,0.00,,,0.00,LWC V1.12 B30,2013-07-08 08:13:00,
2013-07-08 04:19:00,67.4,65.6,29.98,SSW,213,0.0,0.0,94,0.00,,,0.00,LWC V1.12 B30,2013-07-08 08:19:00,
2013-07-08 04:25:00,67.4,65.6,29.97,SSW,213,0.0,0.0,94,0.00,,,0.00,LWC V1.12 B30,2013-07-08 08:25:00,
2013-07-08 04:31:00,67.4,65.6,29.98,SSW,213,0.0,0.0,94,0.00,,,0.00,LWC V1.12 B30,2013-07-08 08:31:00,
2013-07-08 04:37:00,67.4,65.6,29.97,SSW,213,0.0,0.0,94,0.00,,,0.00,LWC V1.12 B30,2013-07-08 08:37:00,
2013-07-08 04:43:00,67.3,65.5,29.97,SSW,213,0.0,0.0,94,0.00,,,0.00,LWC V1.12 B30,2013-07-08 08:43:00,
2013-07-08 04:49:00,67.3,65.5,29.98,SSW,213,0.0,0.0,94,0.00,,,0.00,LWC V1.12 B30,2013-07-08 08:49:00,
2013-07-08 04:55:00,67.3,65.5,29.98,SSW,213,0.0,0.0,94,0.00,,,0.00,LWC V1.12 B30,2013-07-08 08:55:00,
2013-07-08 05:01:00,67.3,65.8,29.97,SSW,213,0.0,0.0,95,0.00,,,0.00,LWC V1.12 B30,2013-07-08 09:01:00,
2013-07-08 05:07:00,67.3,65.8,29.97,SSW,213,0.0,0.0,95,0.00,,,0.00,LWC V1.12 B30,2013-07-08 09:07:00,
2013-07-08 05:13:00,67.3,65.8,29.97,SSW,213,0.0,0.0,95,0.00,,,0.00,LWC V1.12 B30,2013-07-08 09:13:00,
2013-07-08 05:19:00,67.3,65.8,29.97,SSW,213,0.0,0.0,95,0.00,,,0.00,LWC V1.12 B30,2013-07-08 09:19:00,
2013-07-08 05:25:00,67.3,65.8,29.97,SSW,213,0.0,0.0,95,0.00,,,0.00,LWC V1.12 B30,2013-07-08 09:25:00,
2013-07-08 05:31:00,67.1,65.6,29.97,SSW,213,0.0,0.0,95,0.00,,,0.00,LWC V1.12 B30,2013-07-08 09:31:00,
2013-07-08 05:37:00,67.1,65.6,29.97,SSW,213,0.0,0.0,95,0.00,,,0.00,LWC V1.12 B30,2013-07-08 09:37:00,
2013-07-08 05:43:00,67.1,65.9,29.97,SSW,213,0.0,0.0,96,0.00,,,0.00,LWC V1.12 B30,2013-07-08 09:43:00,
2013-07-08 05:49:00,67.3,66.1,29.97,SSW,213,0.0,0.0,96,0.00,,,0.00,LWC V1.12 B30,2013-07-08 09:49:00,
2013-07-08 05:55:00,67.1,65.9,29.97,SSW,213,0.0,0.0,96,0.00,,,0.00,LWC V1.12 B30,2013-07-08 09:55:00,
2013-07-08 06:01:00,67.1,65.9,29.97,SSW,213,0.0,0.0,96,0.00,,,0.00,LWC V1.12 B30,2013-07-08 10:01:00,
2013-07-08 06:07:00,67.3,66.1,29.97,SSW,213,0.0,1.0,96,0.00,,,0.00,LWC V1.12 B30,2013-07-08 10:07:00,
2013-07-08 06:13:00,67.3,66.1,29.97,SSW,213,0.0,1.0,96,0.00,,,0.00,LWC V1.12 B30,2013-07-08 10:13:00,
2013-07-08 06:19:00,67.3,66.1,29.97,SSW,213,0.0,1.0,96,0.00,,,0.00,LWC V1.12 B30,2013-07-08 10:19:00,
2013-07-08 06:25:00,67.4,66.2,29.97,SSW,213,0.0,0.0,96,0.00,,,0.00,LWC V1.12 B30,2013-07-08 10:25:00,
2013-07-08 06:31:00,67.4,66.2,29.97,SSW,213,0.0,0.0,96,0.00,,,0.00,LWC V1.12 B30,2013-07-08 10:31:00,
2013-07-08 06:37:00,67.4,66.2,29.97,SSW,213,0.0,0.0,96,0.00,,,0.00,LWC V1.12 B30,2013-07-08 10:37:00,
2013-07-08 06:43:00,67.6,66.4,29.97,SSW,213,0.0,0.0,96,0.00,,,0.00,LWC V1.12 B30,2013-07-08 10:43:00,
2013-07-08 06:49:00,67.6,66.4,29.97,SSW,213,0.0,0.0,96,0.00,,,0.00,LWC V1.12 B30,2013-07-08 10:49:00,
2013-07-08 06:55:00,67.8,66.6,29.98,SSW,213,0.0,1.0,96,0.00,,,0.00,LWC V1.12 B30,2013-07-08 10:55:00,
2013-07-08 07:01:00,67.9,66.7,29.99,SSW,213,0.0,0.0,96,0.00,,,0.00,LWC V1.12 B30,2013-07-08 11:01:00,
2013-07-08 07:07:00,68.1,66.9,29.99,SSW,213,0.0,0.0,96,0.00,,,0.00,LWC V1.12 B30,2013-07-08 11:07:00,
2013-07-08 07:13:00,68.3,67.1,30.00,SSW,213,0.0,0.0,96,0.00,,,0.00,LWC V1.12 B30,2013-07-08 11:13:00,
2013-07-08 07:19:00,68.4,67.2,30.00,SSW,213,0.0,0.0,96,0.00,,,0.00,LWC V1.12 B30,2013-07-08 11:19:00,
2013-07-08 07:25:00,68.6,67.4,30.00,SSW,213,0.0,0.0,96,0.00,,,0.00,LWC V1.12 B30,2013-07-08 11:25:00,
2013-07-08 07:31:00,68.8,67.6,30.00,SSW,213,0.0,0.0,96,0.00,,,0.00,LWC V1.12 B30,2013-07-08 11:31:00,
2013-07-08 07:37:00,68.9,67.7,30.00,SSW,213,0.0,0.0,96,0.00,,,0.00,LWC V1.12 B30,2013-07-08 11:37:00,
2013-07-08 07:43:00,68.9,67.7,30.00,SSW,213,0.0,0.0,96,0.00,,,0.00,LWC V1.12 B30,2013-07-08 11:43:00,
2013-07-08 07:49:00,69.1,67.9,29.99,SSW,213,0.0,0.0,96,0.00,,,0.00,LWC V1.12 B30,2013-07-08 11:49:00,
2013-07-08 07:55:00,69.1,67.9,29.99,SSW,213,0.0,0.0,96,0.00,,,0.00,LWC V1.12 B30,2013-07-08 11:55:00,
2013-07-08 08:01:00,69.1,67.9,29.98,SSW,213,0.0,1.0,96,0.00,,,0.01,LWC V1.12 B30,2013-07-08 12:01:00,
2013-07-08 08:07:00,69.1,67.9,29.98,SSW,213,0.0,1.0,96,0.06,,,0.01,LWC V1.12 B30,2013-07-08 12:07:00,
2013-07-08 08:13:00,69.1,67.9,29.98,SSW,213,1.0,1.0,96,0.06,,,0.01,LWC V1.12 B30,2013-07-08 12:13:00,
2013-07-08 08:19:00,69.3,68.1,29.98,SSW,213,1.0,1.0,96,0.04,,,0.02,LWC V1.12 B30,2013-07-08 12:19:00,
2013-07-08 08:25:00,69.3,68.1,29.98,SSW,213,2.0,2.0,96,0.00,,,0.02,LWC V1.12 B30,2013-07-08 12:25:00,
2013-07-08 08:31:00,69.4,68.5,29.98,SSW,213,0.0,2.0,97,0.00,,,0.02,LWC V1.12 B30,2013-07-08 12:31:00,
2013-07-08 08:37:00,69.8,68.9,29.98,SSW,207,1.0,2.0,97,0.00,,,0.02,LWC V1.12 B30,2013-07-08 12:37:00,
2013-07-08 08:43:00,70.1,69.2,29.99,SSW,197,0.0,1.0,97,0.00,,,0.02,LWC V1.12 B30,2013-07-08 12:43:00,
2013-07-08 08:49:00,70.1,69.2,29.98,SSW,198,0.0,0.0,97,0.00,,,0.02,LWC V1.12 B30,2013-07-08 12:49:00,
2013-07-08 08:55:00,70.3,69.4,29.98,SSW,198,0.0,1.0,97,0.00,,,0.02,LWC V1.12 B30,2013-07-08 12:55:00,
2013-07-08 09:01:00,70.6,69.4,29.98,SSW,198,0.0,2.0,96,0.00,,,0.02,LWC V1.12 B30,2013-07-08 13:01:00,
2013-07-08 09:07:00,71.1,70.2,29.99,SSW,198,0.0,0.0,97,0.00,,,0.02,LWC V1.12 B30,2013-07-08 13:07:00,
2013-07-08 09:13:00,71.5,70.3,29.98,SSW,198,1.0,3.0,96,0.00,,,0.02,LWC V1.12 B30,2013-07-08 13:13:00,
2013-07-08 09:19:00,71.6,70.4,29.98,SSW,198,0.0,0.0,96,0.00,,,0.02,LWC V1.12 B30,2013-07-08 13:19:00,
2013-07-08 09:25:00,71.8,70.6,29.98,SSW,198,1.0,3.0,96,0.00,,,0.02,LWC V1.12 B30,2013-07-08 13:25:00,
2013-07-08 09:31:00,72.0,70.5,29.98,SSW,198,0.0,1.0,95,0.00,,,0.02,LWC V1.12 B30,2013-07-08 13:31:00,
2013-07-08 09:37:00,72.3,70.8,29.98,SSW,194,0.0,0.0,95,0.00,,,0.02,LWC V1.12 B30,2013-07-08 13:37:00,
2013-07-08 09:43:00,72.7,70.9,29.97,South,189,1.0,1.0,94,0.00,,,0.02,LWC V1.12 B30,2013-07-08 13:43:00,
2013-07-08 09:49:00,73.3,71.1,29.97,South,189,0.0,2.0,93,0.00,,,0.02,LWC V1.12 B30,2013-07-08 13:49:00,
2013-07-08 09:55:00,73.5,71.0,29.97,South,189,1.0,2.0,92,0.00,,,0.02,LWC V1.12 B30,2013-07-08 13:55:00,
2013-07-08 10:01:00,74.0,71.2,29.97,SSW,202,2.0,2.0,91,0.00,,,0.02,LWC V1.12 B30,2013-07-08 14:01:00,
2013-07-08 10:07:00,74.4,70.9,29.97,South,189,1.0,6.0,89,0.00,,,0.02,LWC V1.12 B30,2013-07-08 14:07:00,
2013-07-08 10:13:00,74.9,71.1,29.98,WSW,258,0.0,3.0,88,0.00,,,0.02,LWC V1.12 B30,2013-07-08 14:13:00,
2013-07-08 10:19:00,75.3,70.8,29.98,SSW,209,0.0,4.0,86,0.00,,,0.02,LWC V1.12 B30,2013-07-08 14:19:00,
2013-07-08 10:25:00,75.8,71.3,29.98,SSW,198,1.0,3.0,86,0.00,,,0.02,LWC V1.12 B30,2013-07-08 14:25:00,
2013-07-08 10:31:00,76.1,70.9,29.98,South,185,0.0,6.0,84,0.00,,,0.02,LWC V1.12 B30,2013-07-08 14:31:00,
2013-07-08 10:37:00,76.5,71.3,29.98,SSW,192,1.0,3.0,84,0.00,,,0.02,LWC V1.12 B30,2013-07-08 14:37:00,
2013-07-08 10:43:00,76.7,71.5,29.98,SSW,200,0.0,0.0,84,0.00,,,0.02,LWC V1.12 B30,2013-07-08 14:43:00,
2013-07-08 10:49:00,76.5,70.9,29.98,SSW,201,1.0,2.0,83,0.00,,,0.02,LWC V1.12 B30,2013-07-08 14:49:00,
2013-07-08 10:55:00,76.5,70.6,29.98,SSW,196,3.0,5.0,82,0.00,,,0.02,LWC V1.12 B30,2013-07-08 14:55:00,
2013-07-08 11:01:00,76.8,71.2,29.98,South,184,2.0,6.0,83,0.00,,,0.02,LWC V1.12 B30,2013-07-08 15:01:00,
2013-07-08 11:07:00,77.2,70.9,29.98,SSW,200,4.0,7.0,81,0.00,,,0.02,LWC V1.12 B30,2013-07-08 15:07:00,
2013-07-08 11:13:00,77.2,70.9,29.98,SE,135,1.0,2.0,81,0.00,,,0.02,LWC V1.12 B30,2013-07-08 15:13:00,
2013-07-08 11:19:00,77.9,71.6,29.97,SW,227,0.0,3.0,81,0.00,,,0.02,LWC V1.12 B30,2013-07-08 15:19:00,
2013-07-08 11:25:00,78.6,71.9,29.97,SW,227,0.0,2.0,80,0.00,,,0.02,LWC V1.12 B30,2013-07-08 15:25:00,
2013-07-08 11:31:00,79.0,72.3,29.97,SW,227,0.0,1.0,80,0.00,,,0.02,LWC V1.12 B30,2013-07-08 15:31:00,
2013-07-08 11:37:00,79.2,71.7,29.97,SE,129,0.0,0.0,78,0.00,,,0.02,LWC V1.12 B30,2013-07-08 15:37:00,
2013-07-08 11:43:00,79.4,71.9,29.97,SW,219,1.0,4.0,78,0.00,,,0.02,LWC V1.12 B30,2013-07-08 15:43:00,
2013-07-08 11:49:00,79.6,72.1,29.97,South,190,1.0,4.0,78,0.00,,,0.02,LWC V1.12 B30,2013-07-08 15:49:00,
2013-07-08 11:55:00,79.6,71.7,29.97,SE,130,0.0,2.0,77,0.00,,,0.02,LWC V1.12 B30,2013-07-08 15:55:00,
2013-07-08 12:01:00,79.8,72.3,29.97,NW,313,2.0,4.0,78,0.00,,,0.02,LWC V1.12 B30,2013-07-08 16:01:00,
2013-07-08 12:07:00,79.8,72.3,29.97,South,188,2.0,2.0,78,0.00,,,0.02,LWC V1.12 B30,2013-07-08 16:07:00,
2013-07-08 12:13:00,79.6,71.3,29.97,SSW,194,0.0,3.0,76,0.00,,,0.02,LWC V1.12 B30,2013-07-08 16:13:00,
2013-07-08 12:19:00,79.9,72.0,29.96,SSW,201,1.0,5.0,77,0.00,,,0.02,LWC V1.12 B30,2013-07-08 16:19:00,
2013-07-08 12:25:00,80.1,71.8,29.97,SSW,207,4.0,4.0,76,0.00,,,0.02,LWC V1.12 B30,2013-07-08 16:25:00,
2013-07-08 12:31:00,80.1,71.8,29.97,South,180,1.0,7.0,76,0.00,,,0.02,LWC V1.12 B30,2013-07-08 16:31:00,
2013-07-08 12:37:00,80.3,72.0,29.96,ENE,76,2.0,4.0,76,0.00,,,0.02,LWC V1.12 B30,2013-07-08 16:37:00,
2013-07-08 12:43:00,80.3,72.0,29.96,SSW,203,3.0,7.0,76,0.00,,,0.02,LWC V1.12 B30,2013-07-08 16:43:00,
2013-07-08 12:49:00,80.5,72.6,29.96,SSW,196,0.0,2.0,77,0.00,,,0.02,LWC V1.12 B30,2013-07-08 16:49:00,
2013-07-08 12:57:00,80.1,72.2,29.97,SSW,205,1.0,3.0,77,0.00,,,0.02,LWC V1.12 B30,2013-07-08 16:57:00,
2013-07-08 13:05:00,80.3,72.8,29.96,South,174,0.0,5.0,78,0.00,,,0.02,LWC V1.12 B30,2013-07-08 17:05:00,
2013-07-08 13:11:00,80.7,73.2,29.96,East,98,2.0,4.0,78,0.00,,,0.02,LWC V1.12 B30,2013-07-08 17:11:00,
2013-07-08 13:17:00,81.4,73.5,29.96,SSW,202,2.0,2.0,77,0.00,,,0.02,LWC V1.12 B30,2013-07-08 17:17:00,
2013-07-08 13:23:00,81.8,73.1,29.95,South,190,1.0,5.0,75,0.00,,,0.02,LWC V1.12 B30,2013-07-08 17:23:00,
2013-07-08 13:29:00,81.8,73.1,29.95,South,185,0.0,3.0,75,0.00,,,0.02,LWC V1.12 B30,2013-07-08 17:29:00,
2013-07-08 13:35:00,81.1,73.9,29.95,West,271,4.0,5.0,79,0.86,,,0.02,LWC V1.12 B30,2013-07-08 17:35:00,
2013-07-08 13:41:00,76.7,67.8,29.95,West,279,5.0,12.0,74,2.57,,,0.02,LWC V1.12 B30,2013-07-08 17:41:00,
2013-07-08 13:47:00,73.3,67.5,29.94,SSW,210,4.0,5.0,82,2.95,,,0.35,LWC V1.12 B30,2013-07-08 17:47:00,
2013-07-08 13:53:00,73.7,68.9,29.94,West,269,0.0,0.0,85,0.16,,,0.35,LWC V1.12 B30,2013-07-08 17:53:00,
2013-07-08 13:59:00,73.3,68.8,29.93,West,269,0.0,0.0,86,0.06,,,0.35,LWC V1.12 B30,2013-07-08 17:59:00,
2013-07-08 14:05:00,73.0,69.6,29.93,West,269,0.0,0.0,89,0.04,,,0.48,LWC V1.12 B30,2013-07-08 18:05:00,
2013-07-08 14:11:00,73.5,70.7,29.93,West,269,0.0,1.0,91,0.00,,,0.48,LWC V1.12 B30,2013-07-08 18:11:00,
2013-07-08 14:17:00,74.0,71.5,29.92,West,269,0.0,0.0,92,0.00,,,0.48,LWC V1.12 B30,2013-07-08 18:17:00,
2013-07-08 14:23:00,74.4,71.9,29.92,West,269,0.0,0.0,92,0.00,,,0.48,LWC V1.12 B30,2013-07-08 18:23:00,
2013-07-08 14:33:00,75.4,73.2,29.93,West,269,0.0,0.0,93,0.00,,,0.48,LWC V1.12 B30,2013-07-08 18:33:00,
2013-07-08 14:43:00,75.8,73.3,29.93,SE,133,0.0,2.0,92,0.00,,,0.48,LWC V1.12 B30,2013-07-08 18:43:00,
2013-07-08 14:49:00,75.6,72.8,29.94,West,259,2.0,3.0,91,0.00,,,0.48,LWC V1.12 B30,2013-07-08 18:49:00,
2013-07-08 14:57:00,76.0,72.8,29.94,WSW,248,1.0,1.0,90,0.00,,,0.48,LWC V1.12 B30,2013-07-08 18:57:00,
2013-07-08 15:09:00,76.3,72.8,29.94,WSW,248,0.0,0.0,89,0.00,,,0.48,LWC V1.12 B30,2013-07-08 19:09:00,
2013-07-08 15:15:00,76.5,72.3,29.94,WSW,247,0.0,1.0,87,0.00,,,0.48,LWC V1.12 B30,2013-07-08 19:15:00,
2013-07-08 15:21:00,77.4,72.5,29.93,WSW,247,0.0,1.0,85,0.00,,,0.48,LWC V1.12 B30,2013-07-08 19:21:00,
2013-07-08 15:27:00,78.1,72.1,29.93,SSW,202,0.0,0.0,82,0.00,,,0.48,LWC V1.12 B30,2013-07-08 19:27:00,
2013-07-08 15:33:00,78.3,71.6,29.93,WSW,252,0.0,0.0,80,0.00,,,0.48,LWC V1.12 B30,2013-07-08 19:33:00,
2013-07-08 15:39:00,78.1,71.4,29.93,WSW,250,0.0,1.0,80,0.00,,,0.48,LWC V1.12 B30,2013-07-08 19:39:00,
2013-07-08 15:45:00,77.9,72.3,29.93,WSW,246,0.0,1.0,83,0.00,,,0.49,LWC V1.12 B30,2013-07-08 19:45:00,
2013-07-08 15:57:00,76.7,71.8,29.94,SSW,202,0.0,2.0,85,0.00,,,0.49,LWC V1.12 B30,2013-07-08 19:57:00,
2013-07-08 16:05:00,76.0,71.8,29.94,SW,217,3.0,4.0,87,0.00,,,0.49,LWC V1.12 B30,2013-07-08 20:05:00,
2013-07-08 16:11:00,75.8,69.5,29.93,SW,227,2.0,7.0,81,0.00,,,0.49,LWC V1.12 B30,2013-07-08 20:11:00,
2013-07-08 16:17:00,76.7,70.0,29.93,WSW,242,3.0,3.0,80,0.00,,,0.49,LWC V1.12 B30,2013-07-08 20:17:00,
2013-07-08 16:23:00,77.2,69.4,29.94,SW,221,3.0,4.0,77,0.00,,,0.49,LWC V1.12 B30,2013-07-08 20:23:00,
2013-07-08 16:29:00,77.4,68.4,29.93,WSW,253,0.0,3.0,74,0.00,,,0.49,LWC V1.12 B30,2013-07-08 20:29:00,
2013-07-08 16:35:00,77.6,67.0,29.92,WSW,254,5.0,6.0,70,0.00,,,0.49,LWC V1.12 B30,2013-07-08 20:35:00,
2013-07-08 16:43:00,78.3,66.4,29.93,West,275,2.0,8.0,67,0.00,,,0.49,LWC V1.12 B30,2013-07-08 20:43:00,
2013-07-08 16:51:00,78.1,67.1,29.93,WSW,258,1.0,5.0,69,0.00,,,0.49,LWC V1.12 B30,2013-07-08 20:51:00,
2013-07-08 16:59:00,77.7,67.1,29.94,WSW,244,1.0,2.0,70,0.00,,,0.49,LWC V1.12 B30,2013-07-08 20:59:00,
2013-07-08 17:05:00,77.6,67.0,29.93,WSW,248,1.0,4.0,70,0.00,,,0.49,LWC V1.12 B30,2013-07-08 21:05:00,
2013-07-08 17:15:00,77.0,66.9,29.94,WSW,242,2.0,6.0,71,0.00,,,0.49,LWC V1.12 B30,2013-07-08 21:15:00,
2013-07-08 17:21:00,76.8,66.7,29.93,WSW,255,3.0,5.0,71,0.00,,,0.49,LWC V1.12 B30,2013-07-08 21:21:00,
2013-07-08 17:37:00,77.2,67.9,29.93,WSW,247,0.0,0.0,73,0.00,,,0.49,LWC V1.12 B30,2013-07-08 21:37:00,
2013-07-08 17:45:00,77.6,67.8,29.93,SSW,209,2.0,3.0,72,0.00,,,0.49,LWC V1.12 B30,2013-07-08 21:45:00,
2013-07-08 17:53:00,77.9,68.1,29.93,SSW,197,0.0,3.0,72,0.00,,,0.49,LWC V1.12 B30,2013-07-08 21:53:00,
2013-07-08 18:01:00,77.9,68.5,29.93,SW,229,0.0,2.0,73,0.00,,,0.49,LWC V1.12 B30,2013-07-08 22:01:00,
2013-07-08 18:09:00,77.7,68.3,29.92,SW,227,0.0,1.0,73,0.00,,,0.49,LWC V1.12 B30,2013-07-08 22:09:00,
2013-07-08 18:19:00,77.6,68.6,29.92,SW,227,0.0,1.0,74,0.00,,,0.49,LWC V1.12 B30,2013-07-08 22:19:00,
2013-07-08 18:25:00,77.4,68.4,29.92,SW,223,2.0,4.0,74,0.00,,,0.49,LWC V1.12 B30,2013-07-08 22:25:00,
2013-07-08 18:33:00,77.2,67.0,29.92,SW,219,1.0,2.0,71,0.00,,,0.49,LWC V1.12 B30,2013-07-08 22:33:00,
2013-07-08 18:39:00,77.0,66.9,29.93,SSW,207,0.0,1.0,71,0.00,,,0.49,LWC V1.12 B30,2013-07-08 22:39:00,
2013-07-08 18:45:00,77.0,66.4,29.93,South,186,1.0,1.0,70,0.00,,,0.49,LWC V1.12 B30,2013-07-08 22:45:00,
2013-07-08 18:53:00,76.8,66.7,29.93,South,186,0.0,2.0,71,0.00,,,0.49,LWC V1.12 B30,2013-07-08 22:53:00,
2013-07-08 18:59:00,76.7,66.6,29.93,SSW,195,1.0,3.0,71,0.00,,,0.49,LWC V1.12 B30,2013-07-08 22:59:00,
2013-07-08 19:07:00,76.5,66.4,29.93,SSE,157,0.0,1.0,71,0.00,,,0.49,LWC V1.12 B30,2013-07-08 23:07:00,
2013-07-08 19:17:00,76.3,66.6,29.93,SSE,157,0.0,0.0,72,0.00,,,0.49,LWC V1.12 B30,2013-07-08 23:17:00,
2013-07-08 19:23:00,76.1,66.4,29.93,SSE,157,0.0,2.0,72,0.00,,,0.49,LWC V1.12 B30,2013-07-08 23:23:00,
2013-07-08 19:31:00,76.0,66.3,29.93,SSE,157,0.0,1.0,72,0.00,,,0.49,LWC V1.12 B30,2013-07-08 23:31:00,
2013-07-08 19:37:00,76.0,66.7,29.93,SSE,157,0.0,0.0,73,0.00,,,0.49,LWC V1.12 B30,2013-07-08 23:37:00,
2013-07-08 19:45:00,75.8,66.5,29.94,SSE,158,0.0,0.0,73,0.00,,,0.49,LWC V1.12 B30,2013-07-08 23:45:00,
2013-07-08 19:51:00,75.8,66.9,29.94,SSE,157,0.0,1.0,74,0.00,,,0.49,LWC V1.12 B30,2013-07-08 23:51:00,
2013-07-08 19:57:00,75.8,66.9,29.94,SSE,158,0.0,0.0,74,0.00,,,0.49,LWC V1.12 B30,2013-07-08 23:57:00,
2013-07-08 20:05:00,75.6,67.1,29.94,SSE,158,0.0,0.0,75,0.00,,,0.49,LWC V1.12 B30,2013-07-09 00:05:00,
2013-07-08 20:11:00,75.4,67.7,29.94,SSE,158,0.0,0.0,77,0.00,,,0.49,LWC V1.12 B30,2013-07-09 00:11:00,
2013-07-08 20:21:00,75.1,68.1,29.94,SSE,158,0.0,0.0,79,0.00,,,0.49,LWC V1.12 B30,2013-07-09 00:21:00,
2013-07-08 20:37:00,74.4,67.8,29.94,SSE,158,0.0,0.0,80,0.00,,,0.49,LWC V1.12 B30,2013-07-09 00:37:00,
2013-07-08 20:43:00,74.4,68.2,29.94,SSE,157,0.0,1.0,81,0.00,,,0.49,LWC V1.12 B30,2013-07-09 00:43:00,
2013-07-08 20:53:00,74.2,67.6,29.94,SSW,198,0.0,1.0,80,0.00,,,0.49,LWC V1.12 B30,2013-07-09 00:53:00,
2013-07-08 20:59:00,74.2,67.6,29.93,SSW,198,0.0,2.0,80,0.00,,,0.49,LWC V1.12 B30,2013-07-09 00:59:00,
2013-07-08 21:05:00,74.4,67.8,29.94,SSW,198,0.0,0.0,80,0.00,,,0.49,LWC V1.12 B30,2013-07-09 01:05:00,
2013-07-08 21:13:00,74.2,67.6,29.93,SSE,157,0.0,1.0,80,0.00,,,0.49,LWC V1.12 B30,2013-07-09 01:13:00,
2013-07-08 21:19:00,74.2,68.0,29.93,SSE,157,0.0,0.0,81,0.00,,,0.49,LWC V1.12 B30,2013-07-09 01:19:00,
2013-07-08 21:27:00,74.0,67.8,29.93,SSE,157,0.0,0.0,81,0.00,,,0.49,LWC V1.12 B30,2013-07-09 01:27:00,
2013-07-08 21:33:00,74.0,67.8,29.93,SSE,157,0.0,0.0,81,0.00,,,0.49,LWC V1.12 B30,2013-07-09 01:33:00,
2013-07-08 21:39:00,74.0,67.8,29.93,SSE,157,0.0,0.0,81,0.00,,,0.49,LWC V1.12 B30,2013-07-09 01:39:00,
2013-07-08 21:45:00,73.9,67.7,29.94,SSE,157,0.0,0.0,81,0.00,,,0.49,LWC V1.12 B30,2013-07-09 01:45:00,
2013-07-08 21:51:00,73.9,68.0,29.94,SSE,157,0.0,0.0,82,0.00,,,0.49,LWC V1.12 B30,2013-07-09 01:51:00,
2013-07-08 21:57:00,73.9,68.0,29.94,SSE,157,0.0,0.0,82,0.00,,,0.49,LWC V1.12 B30,2013-07-09 01:57:00,
2013-07-08 22:03:00,73.7,67.8,29.94,SSE,157,0.0,0.0,82,0.00,,,0.49,LWC V1.12 B30,2013-07-09 02:03:00,
2013-07-08 22:09:00,73.7,67.8,29.94,SSE,157,0.0,0.0,82,0.00,,,0.49,LWC V1.12 B30,2013-07-09 02:09:00,
2013-07-08 22:15:00,73.7,68.2,29.94,SSE,157,0.0,0.0,83,0.00,,,0.49,LWC V1.12 B30,2013-07-09 02:15:00,
2013-07-08 22:21:00,73.5,68.0,29.94,SSE,157,0.0,0.0,83,0.00,,,0.49,LWC V1.12 B30,2013-07-09 02:21:00,
2013-07-08 22:29:00,73.5,68.0,29.94,SSE,157,0.0,0.0,83,0.00,,,0.49,LWC V1.12 B30,2013-07-09 02:29:00,
2013-07-08 22:35:00,73.3,67.8,29.94,SSE,157,0.0,0.0,83,0.00,,,0.49,LWC V1.12 B30,2013-07-09 02:35:00,
2013-07-08 22:41:00,73.3,68.2,29.94,SSE,157,0.0,0.0,84,0.00,,,0.49,LWC V1.12 B30,2013-07-09 02:41:00,
2013-07-08 22:47:00,73.2,68.1,29.94,SSE,157,0.0,1.0,84,0.00,,,0.49,LWC V1.12 B30,2013-07-09 02:47:00,
2013-07-08 22:53:00,73.2,68.1,29.94,SSE,157,0.0,0.0,84,0.00,,,0.49,LWC V1.12 B30,2013-07-09 02:53:00,
2013-07-08 22:59:00,73.0,67.9,29.94,SSE,157,0.0,0.0,84,0.00,,,0.49,LWC V1.12 B30,2013-07-09 02:59:00,
2013-07-08 23:05:00,73.0,67.9,29.94,SSE,157,0.0,0.0,84,0.00,,,0.49,LWC V1.12 B30,2013-07-09 03:05:00,
2013-07-08 23:13:00,72.7,67.9,29.94,SSE,157,0.0,0.0,85,0.00,,,0.49,LWC V1.12 B30,2013-07-09 03:13:00,
2013-07-08 23:19:00,72.7,67.9,29.94,SSE,157,0.0,0.0,85,0.00,,,0.49,LWC V1.12 B30,2013-07-09 03:19:00,
2013-07-08 23:27:00,72.5,67.7,29.94,SSE,157,0.0,0.0,85,0.00,,,0.49,LWC V1.12 B30,2013-07-09 03:27:00,
2013-07-08 23:33:00,72.3,67.9,29.94,SSE,157,0.0,0.0,86,0.00,,,0.49,LWC V1.12 B30,2013-07-09 03:33:00,
2013-07-08 23:41:00,72.3,67.9,29.94,SSE,157,0.0,0.0,86,0.00,,,0.49,LWC V1.12 B30,2013-07-09 03:41:00,
2013-07-08 23:51:00,72.1,67.7,29.94,SSE,157,0.0,0.0,86,0.00,,,0.49,LWC V1.12 B30,2013-07-09 03:51:00,
2013-07-08 23:57:00,72.1,68.0,29.94,SSE,157,0.0,0.0,87,0.00,,,0.49,LWC V1.12 B30,2013-07-09 03:57:00,